createdAt,value
2024-01-16T00:00:53.466Z,4.29
2024-01-16T00:03:20.708Z,4.09
2024-01-16T00:05:49.107Z,4.10
2024-01-16T00:08:16.470Z,4.07
2024-01-16T00:10:46.505Z,4.03
2024-01-16T00:13:15.129Z,4.10
2024-01-16T00:15:53.921Z,4.17
2024-01-16T00:18:21.915Z,4.12
2024-01-16T00:20:49.568Z,4.05
2024-01-16T00:23:24.474Z,3.97
2024-01-16T00:25:53.353Z,4.05
2024-01-16T00:28:23.127Z,4.07
2024-01-16T00:30:51.596Z,4.07
2024-01-16T00:33:25.035Z,4.03
2024-01-16T00:35:55.094Z,3.92
2024-01-16T00:38:23.701Z,4.00
2024-01-16T00:40:58.397Z,3.99
2024-01-16T00:43:49.322Z,3.76
2024-01-16T00:46:16.450Z,3.84
2024-01-16T00:48:44.956Z,3.86
2024-01-16T00:51:12.115Z,3.71
2024-01-16T00:53:52.387Z,3.85
2024-01-16T00:56:23.343Z,4.01
2024-01-16T00:58:50.846Z,4.03
2024-01-16T01:01:18.122Z,4.11
2024-01-16T01:03:45.477Z,4.03
2024-01-16T01:06:13.476Z,4.10
2024-01-16T01:08:40.771Z,4.24
2024-01-16T01:11:16.513Z,4.28
2024-01-16T01:13:44.332Z,4.18
2024-01-16T01:16:12.093Z,4.07
2024-01-16T01:18:41.546Z,4.10
2024-01-16T01:21:08.769Z,4.01
2024-01-16T01:23:36.280Z,3.90
2024-01-16T01:26:07.124Z,3.91
2024-01-16T01:28:34.313Z,3.97
2024-01-16T01:31:13.385Z,3.93
2024-01-16T01:33:41.829Z,3.98
2024-01-16T01:36:10.112Z,4.04
2024-01-16T01:38:37.403Z,3.97
2024-01-16T01:41:07.474Z,3.89
2024-01-16T01:43:38.317Z,3.96
2024-01-16T01:46:05.352Z,3.91
2024-01-16T01:48:33.587Z,3.96
2024-01-16T01:51:02.742Z,3.92
2024-01-16T01:53:32.556Z,3.85
2024-01-16T01:56:00.955Z,3.86
2024-01-16T01:58:30.915Z,3.87
2024-01-16T02:00:58.321Z,3.93
2024-01-16T02:03:30.540Z,3.93
2024-01-16T02:05:57.827Z,3.89
2024-01-16T02:08:25.767Z,4.01
2024-01-16T02:10:52.950Z,4.02
2024-01-16T02:13:24.852Z,3.98
2024-01-16T02:15:53.537Z,3.85
2024-01-16T02:18:32.818Z,3.86
2024-01-16T02:21:13.503Z,3.91
2024-01-16T02:23:53.404Z,3.81
2024-01-16T02:26:22.355Z,3.85
2024-01-16T02:28:58.547Z,3.80
2024-01-16T02:31:25.903Z,3.81
2024-01-16T02:33:56.347Z,3.73
2024-01-16T02:36:26.043Z,3.76
2024-01-16T02:38:58.578Z,3.73
2024-01-16T02:41:27.489Z,3.45
2024-01-16T02:43:59.076Z,3.42
2024-01-16T02:46:26.384Z,3.68
2024-01-16T02:48:54.559Z,3.60
2024-01-16T02:51:22.938Z,3.16
2024-01-16T02:53:57.564Z,3.11
2024-01-16T02:56:30.060Z,2.95
2024-01-16T02:58:58.521Z,2.93
2024-01-16T03:01:35.267Z,3.00
2024-01-16T03:04:12.119Z,3.13
2024-01-16T03:06:39.246Z,3.25
2024-01-16T03:09:06.312Z,3.44
2024-01-16T03:11:34.707Z,3.48
2024-01-16T03:14:02.821Z,3.48
2024-01-16T03:16:30.131Z,3.33
2024-01-16T03:18:57.728Z,3.30
2024-01-16T03:21:24.985Z,3.24
2024-01-16T03:23:52.386Z,3.27
2024-01-16T03:26:23.731Z,3.03
2024-01-16T03:28:56.365Z,3.12
2024-01-16T03:31:38.517Z,3.08
2024-01-16T03:34:06.077Z,3.13
2024-01-16T03:36:34.023Z,3.04
2024-01-16T03:39:05.278Z,3.11
2024-01-16T03:41:32.370Z,3.09
2024-01-16T03:44:00.640Z,3.07
2024-01-16T03:46:27.692Z,3.08
2024-01-16T03:48:54.976Z,2.99
2024-01-16T03:51:25.054Z,3.01
2024-01-16T03:53:56.835Z,3.08
2024-01-16T03:56:24.662Z,3.10
2024-01-16T03:58:51.779Z,3.04
2024-01-16T04:01:35.667Z,3.13
2024-01-16T04:04:11.968Z,3.11
2024-01-16T04:06:42.230Z,3.14
2024-01-16T04:09:10.984Z,3.07
2024-01-16T04:11:38.838Z,3.08
2024-01-16T04:14:13.025Z,3.05
2024-01-16T04:16:40.214Z,3.06
2024-01-16T04:19:09.923Z,3.09
2024-01-16T04:21:38.039Z,3.19
2024-01-16T04:24:07.943Z,3.19
2024-01-16T04:26:57.134Z,3.19
2024-01-16T04:29:27.658Z,3.17
2024-01-16T04:31:55.065Z,3.19
2024-01-16T04:34:29.376Z,3.21
2024-01-16T04:37:05.880Z,3.21
2024-01-16T04:39:36.746Z,3.25
2024-01-16T04:42:04.254Z,3.35
2024-01-16T04:44:31.675Z,3.37
2024-01-16T04:47:03.683Z,3.23
2024-01-16T04:49:30.877Z,3.16
2024-01-16T04:52:08.139Z,3.03
2024-01-16T04:54:35.470Z,3.06
2024-01-16T04:57:03.592Z,3.13
2024-01-16T04:59:35.021Z,3.10
2024-01-16T05:02:02.611Z,3.08
2024-01-16T05:04:32.423Z,3.14
2024-01-16T05:06:59.415Z,3.15
2024-01-16T05:09:32.730Z,3.08
2024-01-16T05:12:09.473Z,3.11
2024-01-16T05:14:36.910Z,3.09
2024-01-16T05:17:06.870Z,2.92
2024-01-16T05:19:34.048Z,2.68
2024-01-16T05:22:04.493Z,2.61
2024-01-16T05:24:37.576Z,2.62
2024-01-16T05:27:06.175Z,2.60
2024-01-16T05:29:44.187Z,2.73
2024-01-16T05:32:22.986Z,2.82
2024-01-16T05:34:56.204Z,2.92
2024-01-16T05:37:30.956Z,3.10
2024-01-16T05:39:59.130Z,3.22
2024-01-16T05:42:29.343Z,3.18
2024-01-16T05:44:59.609Z,3.09
2024-01-16T05:47:32.073Z,3.12
2024-01-16T05:49:59.119Z,3.25
2024-01-16T05:52:26.349Z,3.27
2024-01-16T05:54:53.353Z,3.24
2024-01-16T05:57:22.979Z,3.37
2024-01-16T05:59:51.137Z,3.47
2024-01-16T06:02:18.207Z,3.38
2024-01-16T06:04:49.627Z,3.28
2024-01-16T06:07:17.806Z,3.18
2024-01-16T06:09:47.236Z,3.10
2024-01-16T06:12:15.677Z,3.07
2024-01-16T06:14:57.780Z,3.25
2024-01-16T06:17:29.380Z,3.40
2024-01-16T06:19:58.548Z,3.28
2024-01-16T06:22:29.728Z,3.19
2024-01-16T06:24:59.614Z,3.22
2024-01-16T06:27:28.186Z,3.30
2024-01-16T06:29:56.404Z,3.37
2024-01-16T06:32:25.166Z,3.25
2024-01-16T06:34:52.639Z,3.23
2024-01-16T06:37:22.016Z,3.24
2024-01-16T06:39:49.283Z,3.28
2024-01-16T06:42:19.135Z,3.27
2024-01-16T06:44:46.285Z,3.02
2024-01-16T06:47:18.229Z,3.16
2024-01-16T06:49:45.774Z,3.03
2024-01-16T06:52:13.051Z,3.16
2024-01-16T06:54:42.323Z,3.17
2024-01-16T06:57:09.395Z,3.28
2024-01-16T06:59:38.680Z,3.26
2024-01-16T07:02:09.500Z,3.01
2024-01-16T07:04:37.078Z,2.98
2024-01-16T07:07:04.438Z,3.01
2024-01-16T07:09:33.125Z,2.67
2024-01-16T07:12:02.385Z,2.85
2024-01-16T07:14:29.866Z,3.09
2024-01-16T07:16:56.878Z,3.08
2024-01-16T07:19:24.251Z,3.08
2024-01-16T07:21:51.838Z,3.30
2024-01-16T07:24:21.303Z,3.12
2024-01-16T07:26:50.654Z,3.21
2024-01-16T07:29:17.671Z,3.23
2024-01-16T07:31:49.228Z,3.00
2024-01-16T07:34:21.625Z,3.11
2024-01-16T07:36:50.865Z,3.09
2024-01-16T07:39:17.805Z,3.30
2024-01-16T07:41:44.860Z,3.17
2024-01-16T07:44:16.278Z,3.16
2024-01-16T07:46:49.905Z,3.18
2024-01-16T07:49:17.694Z,3.36
2024-01-16T07:51:47.374Z,3.51
2024-01-16T07:54:16.110Z,3.42
2024-01-16T07:56:44.946Z,3.29
2024-01-16T07:59:13.344Z,3.24
2024-01-16T08:01:40.383Z,3.36
2024-01-16T08:04:12.321Z,3.41
2024-01-16T08:06:40.162Z,3.49
2024-01-16T08:09:07.961Z,3.58
2024-01-16T08:11:42.716Z,3.69
2024-01-16T08:14:13.716Z,3.70
2024-01-16T08:16:40.779Z,3.66
2024-01-16T08:19:10.897Z,3.69
2024-01-16T08:21:42.251Z,3.74
2024-01-16T08:24:09.350Z,3.75
2024-01-16T08:26:36.383Z,3.87
2024-01-16T08:29:05.187Z,3.99
2024-01-16T08:31:32.555Z,4.06
2024-01-16T08:34:08.719Z,4.16
2024-01-16T08:36:37.104Z,4.18
2024-01-16T08:39:07.266Z,4.03
2024-01-16T08:41:39.269Z,4.12
2024-01-16T08:44:07.878Z,4.18
2024-01-16T08:46:50.631Z,4.35
2024-01-16T08:49:21.803Z,4.52
2024-01-16T08:51:51.568Z,4.58
2024-01-16T08:54:19.055Z,4.63
2024-01-16T08:56:54.707Z,4.63
2024-01-16T08:59:23.158Z,4.72
2024-01-16T09:01:50.526Z,4.72
2024-01-16T09:04:19.412Z,4.80
2024-01-16T09:06:51.912Z,4.81
2024-01-16T09:09:31.687Z,4.88
2024-01-16T09:11:59.600Z,4.90
2024-01-16T09:14:28.487Z,5.00
2024-01-16T09:16:59.817Z,5.03
2024-01-16T09:19:29.982Z,5.14
2024-01-16T09:22:02.388Z,5.21
2024-01-16T09:24:32.151Z,5.30
2024-01-16T09:27:07.288Z,5.39
2024-01-16T09:29:36.723Z,5.49
2024-01-16T09:32:04.157Z,5.55
2024-01-16T09:34:31.277Z,5.50
2024-01-16T09:37:03.026Z,5.44
2024-01-16T09:39:34.625Z,5.49
2024-01-16T09:42:05.875Z,5.66
2024-01-16T09:44:35.866Z,5.62
2024-01-16T09:47:05.091Z,5.55
2024-01-16T09:49:32.454Z,5.68
2024-01-16T09:52:03.562Z,5.55
2024-01-16T09:54:37.035Z,5.43
2024-01-16T09:57:08.134Z,5.52
2024-01-16T09:59:37.883Z,5.46
2024-01-16T10:02:08.132Z,5.46
2024-01-16T10:04:43.701Z,5.39
2024-01-16T10:07:18.089Z,5.43
2024-01-16T10:09:52.316Z,5.51
2024-01-16T10:12:21.509Z,5.63
2024-01-16T10:14:53.475Z,5.76
2024-01-16T10:17:30.952Z,5.86
2024-01-16T10:20:06.135Z,6.01
2024-01-16T10:22:33.295Z,6.00
2024-01-16T10:25:18.427Z,6.10
2024-01-16T10:27:48.583Z,6.28
2024-01-16T10:30:16.197Z,6.12
2024-01-16T10:32:46.286Z,6.20
2024-01-16T10:35:17.949Z,6.23
2024-01-16T10:37:59.352Z,6.02
2024-01-16T10:40:32.407Z,5.97
2024-01-16T10:43:06.123Z,6.12
2024-01-16T10:45:34.948Z,6.00
2024-01-16T10:48:12.610Z,6.02
2024-01-16T10:50:40.670Z,6.29
2024-01-16T10:53:10.624Z,6.28
2024-01-16T10:55:56.854Z,6.30
2024-01-16T10:58:25.297Z,6.38
2024-01-16T11:00:55.124Z,6.35
2024-01-16T11:03:53.578Z,6.43
2024-01-16T11:06:25.192Z,6.42
2024-01-16T11:08:56.447Z,6.53
2024-01-16T11:11:26.829Z,6.50
2024-01-16T11:13:56.306Z,6.65
2024-01-16T11:16:24.900Z,6.88
2024-01-16T11:18:52.093Z,7.08
2024-01-16T11:21:21.966Z,6.95
2024-01-16T11:23:50.017Z,6.55
2024-01-16T11:26:41.193Z,6.66
2024-01-16T11:29:30.072Z,6.74
2024-01-16T11:32:13.274Z,6.83
2024-01-16T11:34:58.376Z,7.01
2024-01-16T11:37:29.624Z,6.93
2024-01-16T11:40:46.632Z,6.92
2024-01-16T11:43:37.625Z,6.98
2024-01-16T11:46:13.351Z,7.13
2024-01-16T11:48:44.665Z,7.24
2024-01-16T11:51:26.814Z,7.14
2024-01-16T11:53:54.908Z,7.21
2024-01-16T11:56:41.442Z,7.32
2024-01-16T11:59:54.740Z,7.39
2024-01-16T12:03:03.169Z,7.33
2024-01-16T12:05:32.333Z,7.39
2024-01-16T12:08:00.559Z,7.46
2024-01-16T12:10:27.622Z,7.57
2024-01-16T12:13:04.368Z,7.51
2024-01-16T12:15:36.808Z,7.33
2024-01-16T12:18:13.826Z,7.31
2024-01-16T12:20:47.527Z,7.50
2024-01-16T12:23:18.958Z,7.51
2024-01-16T12:26:01.570Z,7.66
2024-01-16T12:28:41.002Z,7.81
2024-01-16T12:31:16.127Z,7.66
2024-01-16T12:33:47.305Z,7.57
2024-01-16T12:36:19.039Z,7.59
2024-01-16T12:38:59.995Z,7.56
2024-01-16T12:41:39.087Z,7.64
2024-01-16T12:44:15.663Z,7.67
2024-01-16T12:46:45.935Z,7.72
2024-01-16T12:49:14.763Z,7.63
2024-01-16T12:51:43.781Z,7.61
2024-01-16T12:54:18.098Z,7.70
2024-01-16T12:56:46.753Z,7.59
2024-01-16T12:59:16.029Z,7.51
2024-01-16T13:01:48.143Z,7.63
2024-01-16T13:04:20.355Z,7.59
2024-01-16T13:06:51.436Z,7.61
2024-01-16T13:09:35.061Z,7.67
2024-01-16T13:12:02.587Z,7.79
2024-01-16T13:14:36.781Z,7.56
2024-01-16T13:17:09.567Z,7.81
2024-01-16T13:19:39.164Z,7.72
2024-01-16T13:22:17.627Z,7.68
2024-01-16T13:25:05.789Z,7.68
2024-01-16T13:27:42.007Z,7.56
2024-01-16T13:30:09.761Z,7.45
2024-01-16T13:32:44.737Z,7.58
2024-01-16T13:35:17.875Z,7.71
2024-01-16T13:37:45.364Z,7.86
2024-01-16T13:40:22.631Z,7.91
2024-01-16T13:42:51.613Z,7.99
2024-01-16T13:45:19.787Z,7.83
2024-01-16T13:47:51.781Z,7.82
2024-01-16T13:50:19.157Z,7.81
2024-01-16T13:52:46.138Z,7.76
2024-01-16T13:55:13.416Z,7.76
2024-01-16T13:57:43.545Z,7.70
2024-01-16T14:00:15.018Z,7.78
2024-01-16T14:02:50.137Z,7.78
2024-01-16T14:05:20.581Z,7.72
2024-01-16T14:07:54.088Z,7.65
2024-01-16T14:10:23.142Z,7.75
2024-01-16T14:12:53.681Z,7.80
2024-01-16T14:15:25.777Z,8.03
2024-01-16T14:18:00.471Z,8.03
2024-01-16T14:20:30.622Z,7.83
2024-01-16T14:23:03.552Z,7.88
2024-01-16T14:25:30.655Z,7.90
2024-01-16T14:28:12.501Z,7.83
2024-01-16T14:30:49.237Z,7.71
2024-01-16T14:33:17.577Z,7.70
2024-01-16T14:35:48.285Z,7.73
2024-01-16T14:38:15.869Z,7.80
2024-01-16T14:40:44.661Z,7.85
2024-01-16T14:43:12.212Z,7.73
2024-01-16T14:45:39.730Z,7.70
2024-01-16T14:48:08.004Z,7.91
2024-01-16T14:50:37.681Z,7.99
2024-01-16T14:53:07.444Z,8.10
2024-01-16T14:55:34.889Z,8.02
2024-01-16T14:58:03.743Z,7.81
2024-01-16T15:00:42.009Z,7.64
2024-01-16T15:03:22.650Z,7.57
2024-01-16T15:05:58.149Z,7.70
2024-01-16T15:08:32.813Z,7.77
2024-01-16T15:11:10.987Z,7.76
2024-01-16T15:13:41.956Z,7.68
2024-01-16T15:16:13.163Z,7.57
2024-01-16T15:18:44.686Z,7.54
2024-01-16T15:21:12.405Z,7.51
2024-01-16T15:23:42.859Z,7.57
2024-01-16T15:26:35.027Z,7.70
2024-01-16T15:29:07.276Z,7.64
2024-01-16T15:31:34.769Z,7.66
2024-01-16T15:34:20.778Z,7.69
2024-01-16T15:36:49.065Z,7.70
2024-01-16T15:39:17.397Z,7.61
2024-01-16T15:41:47.966Z,7.77
2024-01-16T15:44:26.409Z,7.77
2024-01-16T15:47:15.641Z,7.70
2024-01-16T15:49:56.856Z,7.66
2024-01-16T15:52:53.106Z,7.57
2024-01-16T15:55:48.131Z,7.49
2024-01-16T15:58:34.968Z,7.46
2024-01-16T16:01:43.422Z,7.40
2024-01-16T16:04:12.820Z,7.45
2024-01-16T16:06:42.135Z,7.43
2024-01-16T16:09:24.917Z,7.44
2024-01-16T16:12:04.946Z,7.39
2024-01-16T16:14:53.639Z,7.39
2024-01-16T16:17:38.382Z,7.37
2024-01-16T16:20:16.467Z,7.39
2024-01-16T16:22:48.233Z,7.46
2024-01-16T16:25:16.940Z,7.28
2024-01-16T16:28:02.328Z,7.18
2024-01-16T16:30:38.036Z,7.24
2024-01-16T16:33:10.250Z,7.28
2024-01-16T16:35:45.551Z,7.12
2024-01-16T16:38:12.863Z,7.11
2024-01-16T16:40:49.559Z,7.21
2024-01-16T16:43:32.315Z,7.19
2024-01-16T16:46:04.933Z,7.04
2024-01-16T16:48:33.442Z,6.94
2024-01-16T16:51:11.946Z,6.89
2024-01-16T16:53:44.368Z,6.87
2024-01-16T16:56:17.414Z,7.00
2024-01-16T16:58:48.279Z,6.89
2024-01-16T17:01:20.370Z,6.79
2024-01-16T17:03:54.903Z,6.87
2024-01-16T17:06:27.994Z,6.92
2024-01-16T17:08:55.898Z,6.98
2024-01-16T17:11:27.157Z,7.07
2024-01-16T17:13:59.697Z,7.01
2024-01-16T17:16:30.060Z,6.97
2024-01-16T17:18:59.771Z,6.81
2024-01-16T17:21:28.350Z,6.75
2024-01-16T17:24:08.690Z,6.81
2024-01-16T17:26:41.470Z,6.83
2024-01-16T17:29:09.485Z,6.83
2024-01-16T17:31:38.623Z,6.83
2024-01-16T17:34:06.910Z,6.75
2024-01-16T17:36:40.544Z,6.79
2024-01-16T17:39:13.530Z,6.73
2024-01-16T17:41:49.094Z,6.81
2024-01-16T17:44:17.922Z,6.78
2024-01-16T17:46:47.677Z,6.81
2024-01-16T17:49:20.738Z,6.79
2024-01-16T17:51:49.873Z,6.89
2024-01-16T17:54:19.924Z,6.81
2024-01-16T17:56:49.148Z,6.85
2024-01-16T17:59:18.016Z,6.75
2024-01-16T18:01:45.440Z,6.83
2024-01-16T18:04:21.366Z,6.93
2024-01-16T18:06:51.932Z,6.90
2024-01-16T18:09:34.557Z,6.82
2024-01-16T18:12:06.389Z,6.93
2024-01-16T18:14:48.579Z,6.93
2024-01-16T18:17:15.712Z,6.94
2024-01-16T18:19:45.137Z,6.97
2024-01-16T18:22:20.408Z,6.91
2024-01-16T18:25:00.583Z,6.89
2024-01-16T18:27:27.650Z,6.92
2024-01-16T18:30:00.281Z,6.90
2024-01-16T18:32:29.063Z,6.83
2024-01-16T18:35:00.363Z,6.86
2024-01-16T18:37:35.587Z,6.83
2024-01-16T18:40:04.062Z,6.96
2024-01-16T18:42:31.660Z,6.82
2024-01-16T18:45:00.127Z,6.82
2024-01-16T18:47:28.008Z,6.76
2024-01-16T18:49:55.590Z,6.72
2024-01-16T18:52:24.358Z,6.75
2024-01-16T18:54:56.816Z,6.78
2024-01-16T18:57:27.649Z,6.87
2024-01-16T18:59:58.082Z,6.77
2024-01-16T19:02:29.571Z,6.70
2024-01-16T19:05:09.397Z,6.66
2024-01-16T19:07:40.012Z,6.61
2024-01-16T19:10:18.874Z,6.83
2024-01-16T19:13:06.320Z,6.72
2024-01-16T19:15:37.403Z,6.86
2024-01-16T19:18:12.204Z,6.69
2024-01-16T19:20:47.269Z,6.65
2024-01-16T19:23:20.114Z,6.62
2024-01-16T19:25:56.716Z,6.56
2024-01-16T19:32:00.604Z,6.49
2024-01-16T19:34:46.059Z,6.58
2024-01-16T19:37:27.535Z,6.51
2024-01-16T19:39:58.597Z,6.60
2024-01-16T19:42:42.660Z,6.56
2024-01-16T19:45:20.287Z,6.57
2024-01-16T19:48:08.246Z,6.65
2024-01-16T19:50:47.482Z,6.59
2024-01-16T19:53:21.437Z,6.62
2024-01-16T19:55:52.713Z,6.57
2024-01-16T20:01:08.267Z,6.65
2024-01-16T20:03:44.774Z,6.61
2024-01-16T20:06:20.483Z,6.49
2024-01-16T20:08:54.514Z,6.63
2024-01-16T20:11:35.329Z,6.58
2024-01-16T20:14:09.118Z,6.76
2024-01-16T20:16:38.803Z,6.77
2024-01-16T20:19:22.406Z,6.71
2024-01-16T20:21:55.547Z,6.79
2024-01-16T20:24:40.985Z,6.78
2024-01-16T20:27:15.743Z,6.73
2024-01-16T20:30:08.286Z,6.63
2024-01-16T20:32:36.935Z,6.64
2024-01-16T20:35:05.331Z,6.78
2024-01-16T20:37:39.720Z,6.79
2024-01-16T20:40:07.834Z,6.78
2024-01-16T20:42:39.324Z,6.81
2024-01-16T20:45:07.753Z,6.84
2024-01-16T20:50:53.517Z,6.92
2024-01-16T20:53:52.742Z,6.78
2024-01-16T20:56:51.686Z,6.90
2024-01-16T20:59:42.058Z,6.80
2024-01-16T21:02:47.377Z,6.85
2024-01-16T21:08:37.832Z,6.98
2024-01-16T21:11:10.459Z,6.88
2024-01-16T21:13:56.575Z,6.83
2024-01-16T21:16:54.177Z,6.80
2024-01-16T21:19:47.622Z,6.91
2024-01-16T21:22:36.726Z,6.92
2024-01-16T21:25:11.611Z,6.81
2024-01-16T21:27:50.619Z,6.88
2024-01-16T21:30:28.447Z,6.94
2024-01-16T21:33:00.681Z,6.79
2024-01-16T21:35:42.757Z,6.93
2024-01-16T21:38:23.017Z,6.91
2024-01-16T21:41:06.032Z,6.82
2024-01-16T21:43:54.578Z,6.77
2024-01-16T21:46:49.860Z,6.75
2024-01-16T21:49:31.192Z,6.82
2024-01-16T21:52:08.291Z,6.76
2024-01-16T21:54:44.680Z,6.75
2024-01-16T21:57:26.598Z,6.76
2024-01-16T22:00:15.328Z,6.72
2024-01-16T22:03:18.445Z,6.66
2024-01-16T22:05:47.207Z,6.57
2024-01-16T22:08:14.611Z,6.57
2024-01-16T22:10:43.707Z,6.52
2024-01-16T22:13:29.648Z,6.47
2024-01-16T22:15:57.843Z,6.37
2024-01-16T22:18:25.263Z,6.34
2024-01-16T22:20:52.832Z,6.25
2024-01-16T22:23:21.010Z,6.20
2024-01-16T22:25:48.621Z,6.18
2024-01-16T22:28:22.915Z,6.21
2024-01-16T22:30:50.069Z,6.30
2024-01-16T22:33:20.867Z,6.04
2024-01-16T22:35:48.072Z,6.01
2024-01-16T22:38:22.389Z,5.90
2024-01-16T22:40:49.762Z,5.84
2024-01-16T22:43:18.552Z,5.82
2024-01-16T22:45:46.828Z,5.83
2024-01-16T22:48:14.781Z,5.82
2024-01-16T22:50:51.111Z,5.80
2024-01-16T22:53:26.823Z,5.68
2024-01-16T22:56:02.187Z,5.59
2024-01-16T22:58:36.680Z,5.70
2024-01-16T23:01:08.934Z,5.56
2024-01-16T23:03:36.720Z,5.63
2024-01-16T23:06:04.210Z,5.56
2024-01-16T23:08:31.869Z,5.54
2024-01-16T23:10:59.283Z,5.55
2024-01-16T23:13:26.509Z,5.53
2024-01-16T23:15:54.903Z,5.57
2024-01-16T23:18:27.123Z,5.49
2024-01-16T23:20:57.720Z,5.37
2024-01-16T23:23:25.888Z,5.52
2024-01-16T23:25:56.666Z,5.52
2024-01-16T23:28:26.958Z,5.44
2024-01-16T23:30:54.031Z,5.44
2024-01-16T23:33:21.397Z,5.54
2024-01-16T23:35:48.687Z,5.51
2024-01-16T23:38:17.705Z,5.44
2024-01-16T23:40:44.905Z,5.47
2024-01-16T23:43:16.092Z,5.47
2024-01-16T23:45:43.270Z,5.41
2024-01-16T23:48:10.734Z,5.47
2024-01-16T23:50:39.691Z,5.61
2024-01-16T23:53:08.506Z,5.56
2024-01-16T23:55:43.131Z,5.57
2024-01-16T23:58:19.256Z,5.54
